Terminal Aerodrome Forecast
Issued by NWS

Home | Current Version | Previous Version | Text Only | Print | Product List | Glossary On
Versions: 1 2 3 4 5 6 7 8 9 10 11 12 13 14 15
000
FTAK31 PAJN 312300
TAFAWG
TAF
PAWG 312320Z 0100/0124 32006KT P6SM FEW040
     FM010400 VRB04KT P6SM SKC
     FM010900 00000KT 2SM BR FEW002
      TEMPO 0109/0112 1/2SM FG BKN002
     FM011600 00000KT P6SM FEW002
     FM011900 32003KT P6SM FEW040
      AMD LTD TO CLD VIS AND WIND 0106/0115=

USA.gov is the U.S. government's official web portal to all federal, state and local government web resources and services.